Saint George Island, Florida
Current Conditions -  °F | °C
As of 4:53 AM on Tuesday 21 Oct 2014 (Local Time) from KAAF Reporting Station
Broken Clouds Broken Clouds  
Wind Chill: 65°   Ceiling: 2200
Heat Index: 65°   Visibility: 10mi
Dew Point: 61°   Wind: 5mph
Humidity: 87%   Direction: 350°N
Pressure: 29.95"   Gusts: NA
Location:  29.8852°N, 84.8748°W
Report Text: KAAF 210853Z AUTO 35004KT 10SM BKN022 18/16 A2995 RMK AO2 SLP142 T01830161 56007 TSNO $
Loading
Personal Weather Stations






























Interactive Weather Map New forecast layout! Learn more

10-Day Weather Forecast

Advertisements
Track Severe Weather on mobile